createdAt,value
2018-08-03T00:00:46.866Z,44.10
2018-08-03T00:01:46.660Z,47.11
2018-08-03T00:02:46.665Z,46.04
2018-08-03T00:03:46.570Z,43.33
2018-08-03T00:04:46.586Z,47.40
2018-08-03T00:05:46.503Z,48.66
2018-08-03T00:06:46.508Z,47.60
2018-08-03T00:07:47.089Z,47.98
2018-08-03T00:08:46.486Z,47.30
2018-08-03T00:09:46.418Z,45.85
2018-08-03T00:10:46.381Z,49.51
2018-08-03T00:11:46.913Z,46.12
2018-08-03T00:12:46.879Z,46.99
2018-08-03T00:13:46.942Z,46.60
2018-08-03T00:14:46.328Z,46.51
2018-08-03T00:15:46.278Z,47.47
2018-08-03T00:16:46.238Z,44.76
2018-08-03T00:17:46.221Z,43.60
2018-08-03T00:18:46.269Z,46.31
2018-08-03T00:19:46.197Z,45.64
2018-08-03T00:20:46.179Z,46.80
2018-08-03T00:21:46.718Z,44.37
2018-08-03T00:22:46.101Z,43.21
2018-08-03T00:23:46.132Z,41.76
2018-08-03T00:24:46.593Z,42.34
2018-08-03T00:25:46.560Z,40.11
2018-08-03T00:26:46.044Z,40.31
2018-08-03T00:27:46.211Z,39.34
2018-08-03T00:28:46.533Z,42.92
2018-08-03T00:29:46.050Z,43.89
2018-08-03T00:30:45.878Z,41.86
2018-08-03T00:31:45.891Z,42.72
2018-08-03T00:32:45.874Z,42.82
2018-08-03T00:33:45.824Z,41.95
2018-08-03T00:34:45.845Z,39.82
2018-08-03T00:35:46.277Z,40.21
2018-08-03T00:36:46.299Z,42.82
2018-08-03T00:37:45.697Z,42.24
2018-08-03T00:39:45.788Z,42.92
2018-08-03T00:40:45.615Z,41.76
2018-08-03T00:41:45.761Z,40.21
2018-08-03T00:42:45.570Z,37.79
2018-08-03T00:43:46.113Z,39.43
2018-08-03T00:44:46.254Z,41.17
2018-08-03T00:45:45.513Z,37.30
2018-08-03T00:46:45.487Z,39.04
2018-08-03T00:47:45.462Z,39.72
2018-08-03T00:48:45.464Z,39.70
2018-08-03T00:49:45.474Z,36.43
2018-08-03T00:50:46.046Z,36.91
2018-08-03T00:51:45.355Z,37.59
2018-08-03T00:52:46.289Z,35.07
2018-08-03T00:53:45.310Z,38.07
2018-08-03T00:54:45.284Z,37.88
2018-08-03T00:55:45.839Z,37.79
2018-08-03T00:56:45.879Z,41.56
2018-08-03T00:57:45.208Z,41.17
2018-08-03T00:58:45.201Z,43.02
2018-08-03T00:59:45.142Z,46.99
2018-08-03T01:00:45.118Z,44.67
2018-08-03T01:01:45.711Z,41.86
2018-08-03T01:02:45.083Z,43.79
2018-08-03T01:03:45.052Z,43.89
2018-08-03T01:04:45.071Z,39.72
2018-08-03T01:05:45.532Z,42.72
2018-08-03T01:06:45.558Z,40.01
2018-08-03T01:07:45.570Z,44.18
2018-08-03T01:08:44.929Z,42.34
2018-08-03T01:09:44.897Z,41.66
2018-08-03T01:10:44.949Z,38.37
2018-08-03T01:11:44.829Z,41.56
2018-08-03T01:12:45.435Z,39.62
2018-08-03T01:13:44.801Z,42.63
2018-08-03T01:14:44.755Z,42.03
2018-08-03T01:15:44.729Z,44.18
2018-08-03T01:16:44.726Z,43.12
2018-08-03T01:17:44.777Z,43.21
2018-08-03T01:18:44.665Z,39.92
2018-08-03T01:19:44.670Z,41.47
2018-08-03T01:20:44.626Z,40.01
2018-08-03T01:21:44.586Z,41.55
2018-08-03T01:22:44.697Z,41.66
2018-08-03T01:23:44.587Z,40.21
2018-08-03T01:24:44.517Z,40.86
2018-08-03T01:25:45.080Z,41.93
2018-08-03T01:26:44.456Z,41.64
2018-08-03T01:27:44.477Z,41.83
2018-08-03T01:28:44.558Z,41.86
2018-08-03T01:29:44.935Z,41.16
2018-08-03T01:30:44.889Z,38.85
2018-08-03T01:31:44.303Z,41.16
2018-08-03T01:32:44.747Z,41.66
2018-08-03T01:33:44.272Z,40.09
2018-08-03T01:34:44.282Z,39.32
2018-08-03T01:35:44.229Z,42.51
2018-08-03T01:36:44.173Z,42.13
2018-08-03T01:37:44.758Z,41.74
2018-08-03T01:38:44.130Z,46.67
2018-08-03T01:39:44.171Z,43.38
2018-08-03T01:40:44.758Z,43.68
2018-08-03T01:41:44.059Z,43.38
2018-08-03T01:42:44.026Z,44.45
2018-08-03T01:43:44.011Z,42.80
2018-08-03T01:44:43.976Z,46.09
2018-08-03T01:45:44.586Z,41.64
2018-08-03T01:46:44.609Z,44.64
2018-08-03T01:47:44.152Z,44.35
2018-08-03T01:48:43.883Z,38.73
2018-08-03T01:49:43.889Z,42.03
2018-08-03T01:50:43.827Z,44.45
2018-08-03T01:51:43.940Z,43.00
2018-08-03T01:52:43.773Z,42.61
2018-08-03T01:53:43.802Z,43.68
2018-08-03T01:54:44.292Z,41.74
2018-08-03T01:55:43.708Z,40.28
2018-08-03T01:58:31.281Z,40.00
2018-08-03T01:59:31.177Z,38.83
2018-08-03T02:00:31.158Z,43.09
2018-08-03T02:01:31.103Z,41.06
2018-08-03T02:02:31.089Z,40.96
2018-08-03T02:03:31.046Z,40.09
2018-08-03T02:04:31.683Z,38.54
2018-08-03T02:05:31.734Z,37.87
2018-08-03T02:06:30.967Z,37.38
2018-08-03T02:07:30.960Z,37.09
2018-08-03T02:08:30.908Z,35.35
2018-08-03T02:09:31.008Z,34.96
2018-08-03T02:10:30.906Z,34.47
2018-08-03T02:11:30.831Z,34.38
2018-08-03T02:12:30.849Z,33.60
2018-08-03T02:13:30.800Z,32.34
2018-08-03T02:14:31.414Z,34.19
2018-08-03T02:15:30.787Z,31.86
2018-08-03T02:16:30.748Z,30.99
2018-08-03T02:17:30.690Z,31.09
2018-08-03T02:18:30.703Z,30.51
2018-08-03T02:19:30.804Z,29.53
2018-08-03T02:20:30.648Z,31.28
2018-08-03T02:21:30.806Z,30.79
2018-08-03T02:22:30.582Z,28.86
2018-08-03T02:23:30.542Z,28.56
2018-08-03T02:24:31.104Z,25.47
2018-08-03T02:25:30.584Z,32.24
2018-08-03T02:26:30.467Z,30.89
2018-08-03T02:27:30.425Z,28.76
2018-08-03T02:28:30.387Z,28.18
2018-08-03T02:29:30.381Z,30.21
2018-08-03T02:30:30.349Z,31.96
2018-08-03T02:31:30.377Z,28.86
2018-08-03T02:32:30.298Z,29.24
2018-08-03T02:33:30.285Z,26.53
2018-08-03T02:34:30.263Z,26.43
2018-08-03T02:35:30.252Z,27.98
2018-08-03T02:36:30.204Z,29.44
2018-08-03T02:37:30.393Z,30.21
2018-08-03T02:38:30.127Z,27.79
2018-08-03T02:39:30.693Z,23.82
2018-08-03T02:40:30.664Z,27.21
2018-08-03T02:41:30.579Z,26.25
2018-08-03T02:42:30.092Z,25.18
2018-08-03T02:43:30.200Z,28.47
2018-08-03T02:44:29.969Z,26.92
2018-08-03T02:45:30.557Z,27.31
2018-08-03T02:46:29.959Z,26.73
2018-08-03T02:47:29.964Z,22.66
2018-08-03T02:48:30.060Z,23.53
2018-08-03T02:49:29.853Z,25.27
2018-08-03T02:50:30.432Z,21.20
2018-08-03T02:51:29.814Z,20.53
2018-08-03T02:52:29.786Z,21.01
2018-08-03T02:53:30.526Z,20.53
2018-08-03T02:54:29.728Z,19.46
2018-08-03T02:55:29.730Z,21.40
2018-08-03T02:56:29.707Z,19.46
2018-08-03T02:57:29.690Z,18.59
2018-08-03T02:58:29.846Z,19.46
2018-08-03T02:59:29.592Z,19.46
2018-08-03T03:00:29.590Z,17.82
2018-08-03T03:01:30.118Z,18.40
2018-08-03T03:02:29.548Z,18.79
2018-08-03T03:03:30.068Z,19.17
2018-08-03T03:04:29.678Z,19.46
2018-08-03T03:05:29.468Z,19.07
2018-08-03T03:06:29.410Z,18.30
2018-08-03T03:07:29.985Z,19.37
2018-08-03T03:08:29.893Z,23.72
2018-08-03T03:09:29.856Z,24.88
2018-08-03T03:10:29.557Z,22.56
2018-08-03T03:11:29.282Z,23.63
2018-08-03T03:12:29.252Z,22.65
2018-08-03T03:13:29.224Z,20.92
2018-08-03T03:14:29.214Z,22.37
2018-08-03T03:15:29.163Z,19.66
2018-08-03T03:16:29.353Z,19.94
2018-08-03T03:17:29.108Z,21.40
2018-08-03T03:18:29.098Z,20.52
2018-08-03T03:19:29.119Z,20.62
2018-08-03T03:20:29.043Z,20.71
2018-08-03T03:21:29.220Z,19.55
2018-08-03T03:22:29.002Z,21.58
2018-08-03T03:23:28.983Z,19.26
2018-08-03T03:24:28.939Z,18.19
2018-08-03T03:25:29.464Z,17.90
2018-08-03T03:26:29.089Z,17.81
2018-08-03T03:27:28.840Z,18.00
2018-08-03T03:28:29.372Z,16.94
2018-08-03T03:29:28.825Z,16.84
2018-08-03T03:30:28.777Z,16.16
2018-08-03T03:31:28.950Z,15.87
2018-08-03T03:32:28.722Z,15.39
2018-08-03T03:33:28.740Z,14.61
2018-08-03T03:34:28.682Z,13.84
2018-08-03T03:35:28.660Z,13.75
2018-08-03T03:36:28.823Z,14.42
2018-08-03T03:37:28.609Z,14.51
2018-08-03T03:38:28.589Z,14.32
2018-08-03T03:39:28.551Z,14.32
2018-08-03T03:40:28.531Z,14.42
2018-08-03T03:41:28.526Z,12.77
2018-08-03T03:42:28.583Z,12.00
2018-08-03T03:43:28.463Z,12.29
2018-08-03T03:44:28.385Z,12.97
2018-08-03T03:45:29.010Z,12.58
2018-08-03T03:46:28.351Z,12.10
2018-08-03T03:47:28.354Z,12.68
2018-08-03T03:48:28.475Z,12.68
2018-08-03T03:49:28.282Z,13.25
2018-08-03T03:50:28.276Z,12.77
2018-08-03T03:51:28.231Z,13.06
2018-08-03T03:52:28.232Z,12.39
2018-08-03T03:53:28.194Z,12.57
2018-08-03T03:54:28.351Z,12.67
2018-08-03T03:55:28.105Z,12.09
2018-08-03T03:56:28.098Z,11.71
2018-08-03T03:57:28.061Z,11.03
2018-08-03T03:58:28.054Z,9.38
2018-08-03T03:59:28.234Z,9.38
2018-08-03T04:00:28.000Z,8.80
2018-08-03T04:01:27.985Z,8.32
2018-08-03T04:02:27.934Z,8.51
2018-08-03T04:03:27.934Z,8.32
2018-08-03T04:04:28.057Z,8.61
2018-08-03T04:05:27.866Z,8.61
2018-08-03T04:06:27.866Z,8.32
2018-08-03T04:07:27.812Z,7.74
2018-08-03T04:08:27.782Z,7.93
2018-08-03T04:09:27.967Z,7.83
2018-08-03T04:10:27.746Z,7.45
2018-08-03T04:11:27.708Z,7.83
2018-08-03T04:12:27.761Z,8.12
2018-08-03T04:13:27.650Z,8.03
2018-08-03T04:14:27.771Z,7.74
2018-08-03T04:15:27.599Z,6.38
2018-08-03T04:16:27.579Z,5.90
2018-08-03T04:17:27.539Z,6.48
2018-08-03T04:18:27.531Z,5.41
2018-08-03T04:19:27.509Z,5.41
2018-08-03T04:20:27.628Z,5.61
2018-08-03T04:21:27.424Z,5.80
2018-08-03T04:22:27.447Z,5.80
2018-08-03T04:23:27.382Z,5.90
2018-08-03T04:24:27.379Z,5.90
2018-08-03T04:25:27.347Z,5.22
2018-08-03T04:28:27.457Z,4.83
2018-08-03T04:29:27.263Z,4.83
2018-08-03T04:30:27.210Z,5.13
2018-08-03T04:31:27.181Z,5.32
2018-08-03T04:32:27.133Z,4.83
2018-08-03T04:33:27.339Z,4.93
2018-08-03T04:34:27.123Z,4.83
2018-08-03T04:35:27.069Z,4.93
2018-08-03T04:36:27.044Z,5.51
2018-08-03T04:37:27.002Z,5.61
2018-08-03T04:38:27.183Z,5.13
2018-08-03T04:39:26.989Z,5.03
2018-08-03T04:40:27.129Z,4.55
2018-08-03T04:41:26.907Z,4.64
2018-08-03T04:42:27.463Z,4.06
2018-08-03T04:43:27.064Z,4.16
2018-08-03T04:44:26.991Z,3.87
2018-08-03T04:45:26.840Z,3.77
2018-08-03T04:46:27.200Z,3.96
2018-08-03T04:47:26.791Z,3.77
2018-08-03T04:48:27.246Z,3.96
2018-08-03T04:49:26.720Z,3.87
2018-08-03T04:50:27.270Z,4.16
2018-08-03T04:51:26.818Z,4.16
2018-08-03T04:52:26.731Z,4.06
2018-08-03T04:53:27.141Z,4.25
2018-08-03T04:54:27.989Z,4.16
2018-08-03T04:55:27.073Z,4.35
2018-08-03T04:56:26.937Z,3.96
2018-08-03T04:57:26.555Z,3.77
2018-08-03T04:58:26.605Z,3.67
2018-08-03T04:59:26.472Z,3.96
2018-08-03T05:00:26.632Z,3.87
2018-08-03T05:01:26.379Z,3.48
2018-08-03T05:02:26.368Z,4.16
2018-08-03T05:03:26.371Z,3.87
2018-08-03T05:04:26.326Z,4.06
2018-08-03T05:05:26.265Z,3.77
2018-08-03T05:06:26.498Z,4.16
2018-08-03T05:07:26.226Z,4.25
2018-08-03T05:08:26.803Z,4.06
2018-08-03T05:09:26.834Z,4.25
2018-08-03T05:10:26.173Z,4.35
2018-08-03T05:11:27.320Z,4.25
2018-08-03T05:12:26.094Z,3.96
2018-08-03T05:13:26.074Z,4.16
2018-08-03T05:14:26.064Z,3.96
2018-08-03T05:15:26.154Z,4.16
2018-08-03T05:16:25.988Z,4.55
2018-08-03T05:17:26.144Z,4.55
2018-08-03T05:18:25.986Z,4.35
2018-08-03T05:19:26.048Z,4.64
2018-08-03T05:20:25.907Z,4.35
2018-08-03T05:21:25.855Z,4.83
2018-08-03T05:22:27.336Z,4.83
2018-08-03T05:23:26.441Z,4.64
2018-08-03T05:24:26.377Z,4.74
2018-08-03T05:25:26.178Z,5.03
2018-08-03T05:26:26.312Z,5.03
2018-08-03T05:27:25.744Z,4.74
2018-08-03T05:28:25.907Z,4.93
2018-08-03T05:29:25.669Z,4.93
2018-08-03T05:30:25.709Z,4.93
2018-08-03T05:31:25.636Z,5.13
2018-08-03T05:32:25.606Z,5.13
2018-08-03T05:33:25.571Z,5.03
2018-08-03T05:34:25.728Z,5.03
2018-08-03T05:35:25.552Z,5.03
2018-08-03T05:36:25.503Z,5.22
2018-08-03T05:37:25.440Z,5.51
2018-08-03T05:38:25.426Z,5.51
2018-08-03T05:39:25.376Z,5.51
2018-08-03T05:40:25.600Z,5.90
2018-08-03T05:41:25.329Z,5.61
2018-08-03T05:42:25.370Z,5.51
2018-08-03T05:43:25.396Z,5.80
2018-08-03T05:44:25.243Z,5.61
2018-08-03T05:45:25.216Z,5.61
2018-08-03T05:46:25.413Z,5.61
2018-08-03T05:47:25.161Z,5.61
2018-08-03T05:48:25.148Z,5.90
2018-08-03T05:49:25.115Z,5.80
2018-08-03T05:50:25.087Z,5.80
2018-08-03T05:51:25.260Z,5.71
2018-08-03T05:52:25.030Z,5.51
2018-08-03T05:53:25.017Z,6.09
2018-08-03T05:54:24.984Z,6.09
2018-08-03T05:55:24.963Z,5.51
2018-08-03T05:56:25.115Z,5.71
2018-08-03T05:57:24.932Z,5.61
2018-08-03T05:58:24.886Z,5.71
2018-08-03T05:59:24.884Z,5.61
2018-08-03T06:00:25.346Z,5.90
2018-08-03T06:01:24.795Z,6.29
2018-08-03T06:02:24.974Z,6.29
2018-08-03T06:03:24.777Z,6.29
2018-08-03T06:04:24.705Z,6.19
2018-08-03T06:05:24.734Z,6.19
2018-08-03T06:06:24.694Z,5.99
2018-08-03T06:07:24.631Z,6.09
2018-08-03T06:08:24.791Z,5.99
2018-08-03T06:09:24.608Z,6.29
2018-08-03T06:10:24.549Z,6.09
2018-08-03T06:11:24.511Z,6.29
2018-08-03T06:12:24.535Z,6.48
2018-08-03T06:13:24.478Z,6.19
2018-08-03T06:14:24.649Z,6.48
2018-08-03T06:15:24.410Z,6.57
2018-08-03T06:16:24.409Z,6.19
2018-08-03T06:17:24.352Z,6.77
2018-08-03T06:18:24.342Z,6.77
2018-08-03T06:19:24.313Z,6.96
2018-08-03T06:20:24.510Z,7.06
2018-08-03T06:21:24.261Z,6.96
2018-08-03T06:22:24.233Z,6.96
2018-08-03T06:23:24.219Z,7.06
2018-08-03T06:24:24.218Z,6.86
2018-08-03T06:25:24.160Z,6.86
2018-08-03T06:26:24.340Z,6.28
2018-08-03T06:27:24.102Z,6.77
2018-08-03T06:28:24.087Z,6.87
2018-08-03T06:29:24.090Z,6.77
2018-08-03T06:30:24.036Z,6.86
2018-08-03T06:31:24.239Z,6.67
2018-08-03T06:32:23.983Z,6.38
2018-08-03T06:33:23.946Z,7.16
2018-08-03T06:34:23.916Z,6.67
2018-08-03T06:35:23.921Z,7.15
2018-08-03T06:36:23.895Z,7.25
2018-08-03T06:37:24.063Z,6.57
2018-08-03T06:38:23.823Z,6.57
2018-08-03T06:39:23.777Z,6.48
2018-08-03T06:40:23.792Z,6.57
2018-08-03T06:41:23.739Z,6.96
2018-08-03T06:42:23.723Z,7.25
2018-08-03T06:43:23.939Z,7.16
2018-08-03T06:44:23.655Z,7.06
2018-08-03T06:45:23.625Z,7.06
2018-08-03T06:46:23.606Z,7.06
2018-08-03T06:47:23.580Z,6.96
2018-08-03T06:48:23.814Z,7.06
2018-08-03T06:49:23.531Z,7.15
2018-08-03T06:50:23.519Z,7.54
2018-08-03T06:51:23.496Z,7.44
2018-08-03T06:52:23.429Z,7.35
2018-08-03T06:53:23.417Z,7.44
2018-08-03T06:54:23.615Z,7.44
2018-08-03T06:55:23.367Z,7.64
2018-08-03T06:56:23.367Z,7.64
2018-08-03T06:57:23.352Z,7.54
2018-08-03T06:58:23.277Z,7.73
2018-08-03T06:59:23.331Z,7.64
2018-08-03T07:00:23.436Z,7.64
2018-08-03T07:01:23.238Z,7.73
2018-08-03T07:02:23.164Z,7.73
2018-08-03T07:03:23.169Z,7.73
2018-08-03T07:05:23.289Z,7.83
2018-08-03T07:06:23.093Z,7.83
2018-08-03T07:07:23.024Z,8.22
2018-08-03T07:08:23.056Z,8.12
2018-08-03T07:09:22.989Z,8.31
2018-08-03T07:10:23.034Z,8.31
2018-08-03T07:11:23.132Z,8.31
2018-08-03T07:12:22.892Z,8.51
2018-08-03T07:13:22.894Z,8.31
2018-08-03T07:14:22.853Z,8.12
2018-08-03T07:15:22.823Z,8.31
2018-08-03T07:16:22.793Z,8.03
2018-08-03T07:17:22.973Z,8.31
2018-08-03T07:18:22.725Z,8.12
2018-08-03T07:19:22.716Z,8.51
2018-08-03T07:20:22.888Z,8.51
2018-08-03T07:21:22.664Z,8.61
2018-08-03T07:22:22.856Z,8.70
2018-08-03T07:23:22.643Z,8.70
2018-08-03T07:24:22.614Z,8.70
2018-08-03T07:25:22.558Z,8.61
2018-08-03T07:26:22.637Z,8.51
2018-08-03T07:27:22.699Z,8.41
2018-08-03T07:28:22.482Z,8.61
2018-08-03T07:29:22.475Z,8.51
2018-08-03T07:30:22.416Z,8.41
2018-08-03T07:31:22.425Z,8.41
2018-08-03T07:32:22.396Z,8.51
2018-08-03T07:33:22.538Z,8.41
2018-08-03T07:34:22.326Z,8.61
2018-08-03T07:35:22.293Z,8.41
2018-08-03T07:36:22.263Z,8.61
2018-08-03T07:37:22.266Z,8.50
2018-08-03T07:38:22.203Z,8.61
2018-08-03T07:39:22.380Z,8.50
2018-08-03T07:40:22.140Z,8.40
2018-08-03T07:41:22.122Z,8.50
2018-08-03T07:42:22.126Z,8.50
2018-08-03T07:43:22.204Z,8.80
2018-08-03T07:44:22.076Z,8.89
2018-08-03T07:45:22.264Z,8.89
2018-08-03T07:46:21.990Z,8.89
2018-08-03T07:47:21.960Z,8.89
2018-08-03T07:48:21.942Z,8.70
2018-08-03T07:49:21.904Z,8.89
2018-08-03T07:50:21.902Z,8.70
2018-08-03T07:51:22.098Z,8.80
2018-08-03T07:52:21.841Z,8.80
2018-08-03T07:53:21.803Z,8.80
2018-08-03T07:54:21.794Z,8.80
2018-08-03T07:55:21.780Z,8.70
2018-08-03T07:56:21.950Z,8.98
2018-08-03T07:57:21.689Z,9.08
2018-08-03T07:58:21.671Z,8.98
2018-08-03T07:59:21.660Z,8.80
2018-08-03T08:00:21.588Z,9.08
2018-08-03T08:01:21.769Z,8.98
2018-08-03T08:02:21.571Z,8.89
2018-08-03T08:03:21.536Z,8.89
2018-08-03T08:04:21.517Z,8.89
2018-08-03T08:06:21.507Z,8.70
2018-08-03T08:07:21.630Z,8.89
2018-08-03T08:08:21.414Z,8.80
2018-08-03T08:09:21.377Z,8.98
2018-08-03T08:10:21.346Z,8.70
2018-08-03T08:11:21.312Z,8.60
2018-08-03T08:12:21.294Z,8.80
2018-08-03T08:13:21.466Z,8.70
2018-08-03T08:14:21.241Z,8.80
2018-08-03T08:15:21.193Z,8.89
2018-08-03T08:16:21.189Z,8.98
2018-08-03T08:17:21.187Z,8.89
2018-08-03T08:18:21.126Z,8.89
2018-08-03T08:19:21.283Z,8.79
2018-08-03T08:20:21.079Z,8.79
2018-08-03T08:21:21.043Z,8.98
2018-08-03T08:22:21.030Z,8.79
2018-08-03T08:23:21.023Z,8.98
2018-08-03T08:24:21.015Z,8.80
2018-08-03T08:25:21.141Z,8.79
2018-08-03T08:26:20.920Z,8.79
2018-08-03T08:27:20.885Z,8.69
2018-08-03T08:28:20.886Z,8.69
2018-08-03T08:29:20.853Z,8.60
2018-08-03T08:30:21.022Z,8.31
2018-08-03T08:31:20.791Z,8.31
2018-08-03T08:32:20.725Z,8.50
2018-08-03T08:33:20.739Z,8.80
2018-08-03T08:34:20.702Z,8.89
2018-08-03T08:35:20.872Z,8.70
2018-08-03T08:36:20.652Z,8.98
2018-08-03T08:37:20.602Z,8.79
2018-08-03T08:38:20.595Z,8.89
2018-08-03T08:39:20.571Z,9.17
2018-08-03T08:40:20.741Z,8.79
2018-08-03T08:41:20.487Z,8.98
2018-08-03T08:42:20.523Z,9.27
2018-08-03T08:43:20.433Z,8.89
2018-08-03T08:44:20.425Z,8.98
2018-08-03T08:45:20.389Z,8.89
2018-08-03T08:46:20.604Z,8.89
2018-08-03T08:47:20.350Z,8.98
2018-08-03T08:48:20.300Z,9.17
2018-08-03T08:49:20.326Z,9.08
2018-08-03T08:50:20.256Z,9.08
2018-08-03T08:51:20.230Z,9.08
2018-08-03T08:52:20.400Z,9.18
2018-08-03T08:53:20.219Z,9.28
2018-08-03T08:54:20.140Z,9.18
2018-08-03T08:55:20.111Z,9.56
2018-08-03T08:56:20.101Z,9.86
2018-08-03T08:57:20.084Z,9.66
2018-08-03T08:58:20.258Z,9.86
2018-08-03T08:59:20.003Z,9.86
2018-08-03T09:00:19.999Z,9.76
2018-08-03T09:01:20.034Z,9.95
2018-08-03T09:02:19.986Z,9.95
2018-08-03T09:03:20.093Z,9.95
2018-08-03T09:04:19.893Z,10.14
2018-08-03T09:05:19.887Z,10.14
2018-08-03T09:06:19.847Z,10.05
2018-08-03T09:07:19.861Z,10.82
2018-08-03T09:08:19.988Z,10.34
2018-08-03T09:09:19.742Z,10.53
2018-08-03T09:10:19.741Z,10.34
2018-08-03T09:11:19.724Z,11.02
2018-08-03T09:12:19.702Z,11.02
2018-08-03T09:13:19.829Z,11.02
2018-08-03T09:14:19.614Z,10.92
2018-08-03T09:15:19.582Z,11.11
2018-08-03T09:16:19.570Z,11.02
2018-08-03T09:17:19.543Z,10.82
2018-08-03T09:18:19.803Z,11.11
2018-08-03T09:19:19.485Z,10.72
2018-08-03T09:20:19.455Z,10.72
2018-08-03T09:21:19.407Z,10.92
2018-08-03T09:22:19.408Z,11.30
2018-08-03T09:23:19.385Z,11.11
2018-08-03T09:24:19.549Z,11.21
2018-08-03T09:25:19.352Z,11.02
2018-08-03T09:26:19.306Z,11.30
2018-08-03T09:27:19.240Z,11.40
2018-08-03T09:28:19.239Z,11.30
2018-08-03T09:29:19.260Z,11.40
2018-08-03T09:30:19.394Z,11.50
2018-08-03T09:31:19.194Z,11.40
2018-08-03T09:32:19.143Z,11.49
2018-08-03T09:33:19.145Z,11.69
2018-08-03T09:34:19.068Z,11.69
2018-08-03T09:35:19.033Z,11.79
2018-08-03T09:36:19.235Z,11.69
2018-08-03T09:37:19.015Z,11.49
2018-08-03T09:38:18.942Z,11.59
2018-08-03T09:39:18.938Z,11.69
2018-08-03T09:40:18.919Z,11.88
2018-08-03T09:41:19.073Z,12.17
2018-08-03T09:42:18.886Z,12.07
2018-08-03T09:43:18.820Z,11.98
2018-08-03T09:44:18.809Z,11.79
2018-08-03T09:45:18.763Z,11.59
2018-08-03T09:46:18.951Z,11.49
2018-08-03T09:47:18.740Z,11.59
2018-08-03T09:48:18.690Z,11.59
2018-08-03T09:49:18.722Z,11.49
2018-08-03T09:50:18.650Z,11.59
2018-08-03T09:51:18.838Z,11.40
2018-08-03T09:52:18.592Z,11.49
2018-08-03T09:53:18.565Z,12.17
2018-08-03T09:54:18.521Z,11.88
2018-08-03T09:55:18.538Z,11.69
2018-08-03T09:56:18.474Z,11.59
2018-08-03T09:57:18.643Z,11.97
2018-08-03T09:58:18.424Z,12.07
2018-08-03T09:59:18.432Z,12.16
2018-08-03T10:00:18.404Z,12.26
2018-08-03T10:01:18.355Z,11.97
2018-08-03T10:02:18.306Z,12.07
2018-08-03T10:03:18.478Z,11.87
2018-08-03T10:04:18.292Z,12.07
2018-08-03T10:05:18.244Z,11.97
2018-08-03T10:06:18.244Z,11.97
2018-08-03T10:07:18.248Z,11.87
2018-08-03T10:08:18.184Z,12.16
2018-08-03T10:09:18.319Z,11.58
2018-08-03T10:10:18.113Z,11.68
2018-08-03T10:11:18.099Z,11.68
2018-08-03T10:12:18.029Z,11.49
2018-08-03T10:13:18.016Z,12.07
2018-08-03T10:14:18.183Z,12.07
2018-08-03T10:15:17.978Z,11.78
2018-08-03T10:16:17.966Z,11.78
2018-08-03T10:17:17.907Z,11.78
2018-08-03T10:18:17.894Z,12.26
2018-08-03T10:19:18.059Z,11.97
2018-08-03T10:20:17.843Z,12.36
2018-08-03T10:21:17.773Z,12.16
2018-08-03T10:22:17.822Z,12.45
2018-08-03T10:23:17.771Z,12.26
2018-08-03T10:24:17.941Z,12.84
2018-08-03T10:25:17.672Z,12.45
2018-08-03T10:26:17.644Z,12.45
2018-08-03T10:27:17.640Z,12.65
2018-08-03T10:28:17.610Z,13.03
2018-08-03T10:29:17.787Z,13.03
2018-08-03T10:30:17.540Z,12.84
2018-08-03T10:31:17.522Z,12.93
2018-08-03T10:32:17.474Z,12.84
2018-08-03T10:33:17.501Z,13.03
2018-08-03T10:34:17.445Z,13.13
2018-08-03T10:35:17.621Z,13.23
2018-08-03T10:36:17.374Z,13.71
2018-08-03T10:37:17.364Z,13.51
2018-08-03T10:38:17.321Z,13.32
2018-08-03T10:39:17.303Z,13.23
2018-08-03T10:40:17.283Z,13.61
2018-08-03T10:41:17.475Z,14.00
2018-08-03T10:42:17.222Z,13.90
2018-08-03T10:43:17.177Z,13.90
2018-08-03T10:44:17.213Z,13.61
2018-08-03T10:45:17.146Z,13.61
2018-08-03T10:46:17.303Z,13.71
2018-08-03T10:47:17.091Z,14.19
2018-08-03T10:48:17.072Z,14.10
2018-08-03T10:49:17.057Z,14.29
2018-08-03T10:50:16.998Z,14.39
2018-08-03T10:51:17.229Z,14.19
2018-08-03T10:52:16.939Z,14.00
2018-08-03T10:53:16.925Z,14.19
2018-08-03T10:54:16.924Z,14.39
2018-08-03T10:55:16.888Z,14.39
2018-08-03T10:56:17.021Z,14.48
2018-08-03T10:57:16.810Z,14.87
2018-08-03T10:58:16.805Z,14.78
2018-08-03T10:59:16.751Z,14.49
2018-08-03T11:00:16.711Z,14.48
2018-08-03T11:01:16.984Z,14.87
2018-08-03T11:02:16.667Z,15.17
2018-08-03T11:03:16.623Z,14.97
2018-08-03T11:04:16.609Z,14.97
2018-08-03T11:05:16.590Z,15.55
2018-08-03T11:06:16.607Z,15.45
2018-08-03T11:07:16.768Z,15.36
2018-08-03T11:08:16.548Z,15.36
2018-08-03T11:09:16.496Z,15.45
2018-08-03T11:10:16.443Z,15.45
2018-08-03T11:11:16.425Z,15.45
2018-08-03T11:12:16.439Z,15.55
2018-08-03T11:13:16.568Z,15.17
2018-08-03T11:14:16.393Z,15.65
2018-08-03T11:15:16.352Z,15.55
2018-08-03T11:16:16.299Z,15.55
2018-08-03T11:17:16.279Z,15.74
2018-08-03T11:18:16.427Z,15.55
2018-08-03T11:19:16.187Z,15.36
2018-08-03T11:20:16.196Z,15.65
2018-08-03T11:21:16.166Z,15.74
2018-08-03T11:22:16.161Z,15.74
2018-08-03T11:23:16.285Z,15.26
2018-08-03T11:24:16.109Z,15.36
2018-08-03T11:25:16.045Z,15.65
2018-08-03T11:26:16.052Z,15.65
2018-08-03T11:27:16.006Z,15.65
2018-08-03T11:28:16.165Z,15.83
2018-08-03T11:29:15.938Z,15.84
2018-08-03T11:30:15.890Z,15.74
2018-08-03T11:31:15.908Z,15.84
2018-08-03T11:32:15.884Z,15.74
2018-08-03T11:33:15.932Z,15.74
2018-08-03T11:34:15.834Z,15.84
2018-08-03T11:35:15.868Z,15.94
2018-08-03T11:36:15.769Z,15.65
2018-08-03T11:37:15.711Z,15.84
2018-08-03T11:38:15.909Z,15.84
2018-08-03T11:39:15.690Z,15.84
2018-08-03T11:40:15.613Z,15.84
2018-08-03T11:41:15.636Z,15.74
2018-08-03T11:42:15.621Z,15.74
2018-08-03T11:43:15.588Z,15.65
2018-08-03T11:44:15.720Z,15.55
2018-08-03T11:45:15.521Z,16.03
2018-08-03T11:46:15.453Z,15.94
2018-08-03T11:47:15.489Z,16.13
2018-08-03T11:48:15.454Z,16.42
2018-08-03T11:49:15.395Z,15.84
2018-08-03T11:50:15.611Z,16.13
2018-08-03T11:51:15.895Z,15.84
2018-08-03T11:52:15.998Z,16.03
2018-08-03T11:53:15.586Z,16.03
2018-08-03T11:54:15.375Z,15.93
2018-08-03T11:55:15.260Z,15.94
2018-08-03T11:56:15.416Z,15.84
2018-08-03T11:57:15.200Z,16.13
2018-08-03T11:58:15.221Z,16.12
2018-08-03T11:59:15.140Z,16.03
2018-08-03T12:00:15.177Z,16.32
2018-08-03T12:01:15.310Z,15.84
2018-08-03T12:02:15.028Z,15.94
2018-08-03T12:03:15.043Z,15.84
2018-08-03T12:04:14.995Z,16.13
2018-08-03T12:05:14.938Z,16.13
2018-08-03T12:06:15.108Z,15.94
2018-08-03T12:07:14.899Z,16.13
2018-08-03T12:08:14.875Z,16.13
2018-08-03T12:09:14.861Z,15.84
2018-08-03T12:10:14.815Z,16.13
2018-08-03T12:11:14.981Z,16.03
2018-08-03T12:12:14.742Z,16.03
2018-08-03T12:13:14.729Z,16.13
2018-08-03T12:14:14.745Z,15.84
2018-08-03T12:15:14.724Z,16.03
2018-08-03T12:16:14.707Z,15.94
2018-08-03T12:17:14.854Z,16.03
2018-08-03T12:18:14.618Z,16.13
2018-08-03T12:19:14.574Z,16.03
2018-08-03T12:20:14.554Z,16.32
2018-08-03T12:21:14.501Z,15.94
2018-08-03T12:22:14.507Z,16.13
2018-08-03T12:23:14.678Z,16.33
2018-08-03T12:24:14.432Z,15.94
2018-08-03T12:25:14.382Z,15.94
2018-08-03T12:26:14.411Z,15.85
2018-08-03T12:27:14.338Z,15.94
2018-08-03T12:28:14.324Z,15.75
2018-08-03T12:29:14.473Z,15.94
2018-08-03T12:30:14.307Z,15.85
2018-08-03T12:31:14.333Z,15.36
2018-08-03T12:32:14.228Z,15.85
2018-08-03T12:33:14.207Z,15.46
2018-08-03T12:34:14.184Z,16.62
2018-08-03T12:35:14.347Z,16.14
2018-08-03T12:36:14.100Z,15.66
2018-08-03T12:37:14.067Z,15.47
2018-08-03T12:38:14.080Z,15.75
2018-08-03T12:39:14.060Z,15.66
2018-08-03T12:40:14.223Z,15.56
2018-08-03T12:41:13.979Z,15.18
2018-08-03T12:42:13.927Z,14.98
2018-08-03T12:43:13.963Z,14.22
2018-08-03T12:44:13.877Z,15.18
2018-08-03T12:45:14.049Z,14.79
2018-08-03T12:46:13.844Z,14.31
2018-08-03T12:47:13.791Z,14.40
2018-08-03T12:48:13.789Z,15.08
2018-08-03T12:49:13.873Z,15.37
2018-08-03T12:50:13.869Z,17.11
2018-08-03T12:51:13.889Z,17.98
2018-08-03T12:52:13.789Z,17.79
2018-08-03T12:53:13.849Z,17.31
2018-08-03T12:54:13.754Z,16.63
2018-08-03T12:55:13.710Z,15.95
2018-08-03T12:56:13.771Z,15.67
2018-08-03T12:57:13.915Z,15.58
2018-08-03T12:58:13.652Z,16.54
2018-08-03T12:59:13.561Z,17.90
2018-08-03T13:00:13.488Z,19.45
2018-08-03T13:01:13.447Z,19.64
2018-08-03T13:02:13.399Z,18.19
2018-08-03T13:03:13.615Z,17.70
2018-08-03T13:04:13.436Z,17.22
2018-08-03T13:05:13.357Z,17.51
2018-08-03T13:06:13.307Z,19.15
2018-08-03T13:07:13.362Z,20.31
2018-08-03T13:08:13.367Z,20.61
2018-08-03T13:09:13.467Z,21.00